createdAt,value
2017-10-05T00:00:20.066Z,0
2017-10-05T00:01:30.321Z,0
2017-10-05T00:02:40.247Z,0
2017-10-05T00:03:50.185Z,0
2017-10-05T00:05:00.135Z,0
2017-10-05T00:06:10.316Z,0
2017-10-05T00:07:19.928Z,0
2017-10-05T00:08:29.549Z,0
2017-10-05T00:09:39.807Z,0
2017-10-05T00:10:50.059Z,0
2017-10-05T00:12:00.667Z,0
2017-10-05T00:13:10.923Z,0
2017-10-05T00:14:20.862Z,0
2017-10-05T00:15:31.106Z,0
2017-10-05T00:16:41.353Z,0
2017-10-05T00:17:51.953Z,0
2017-10-05T00:19:02.206Z,0
2017-10-05T00:20:12.467Z,0
2017-10-05T00:21:22.407Z,0
2017-10-05T00:22:32.662Z,0
2017-10-05T00:23:43.256Z,0
2017-10-05T00:24:53.198Z,0
2017-10-05T00:26:02.821Z,0
2017-10-05T00:27:13.070Z,0
2017-10-05T00:28:23.318Z,0
2017-10-05T00:29:33.556Z,0
2017-10-05T00:30:43.814Z,0
2017-10-05T00:31:54.060Z,0
2017-10-05T00:33:04.305Z,0
2017-10-05T00:34:14.240Z,0
2017-10-05T00:35:24.841Z,0
2017-10-05T00:36:35.101Z,0
2017-10-05T00:37:44.401Z,0
2017-10-05T00:38:54.660Z,0
2017-10-05T00:40:04.905Z,0
2017-10-05T00:41:15.187Z,0
2017-10-05T00:42:25.453Z,0
2017-10-05T00:43:35.706Z,0
2017-10-05T00:44:45.953Z,0
2017-10-05T00:45:55.888Z,0
2017-10-05T00:47:06.125Z,0
2017-10-05T00:48:16.393Z,0
2017-10-05T00:49:25.696Z,0
2017-10-05T00:50:35.986Z,0
2017-10-05T00:51:46.246Z,0
2017-10-05T00:52:56.795Z,0
2017-10-05T00:54:07.052Z,0
2017-10-05T00:55:17.319Z,0
2017-10-05T00:56:27.569Z,0
2017-10-05T00:57:37.500Z,0
2017-10-05T00:58:47.998Z,0
2017-10-05T00:59:57.951Z,0
2017-10-05T01:01:08.205Z,0
2017-10-05T01:02:18.147Z,0
2017-10-05T01:03:28.088Z,0
2017-10-05T01:04:38.578Z,0
2017-10-05T01:05:48.822Z,0
2017-10-05T01:06:59.075Z,0
2017-10-05T01:08:09.320Z,0
2017-10-05T01:09:18.944Z,0
2017-10-05T01:10:29.129Z,0
2017-10-05T01:11:39.372Z,0
2017-10-05T01:12:49.305Z,0
2017-10-05T01:13:59.237Z,0
2017-10-05T01:15:09.181Z,0
2017-10-05T01:16:19.423Z,0
2017-10-05T01:17:29.364Z,0
2017-10-05T01:18:39.305Z,0
2017-10-05T01:19:49.241Z,0
2017-10-05T01:20:59.501Z,0
2017-10-05T01:22:09.780Z,0
2017-10-05T01:23:20.038Z,0
2017-10-05T01:24:29.973Z,0
2017-10-05T01:25:39.908Z,0
2017-10-05T01:26:50.163Z,0
2017-10-05T01:28:00.669Z,0
2017-10-05T01:29:10.297Z,0
2017-10-05T01:30:20.550Z,0
2017-10-05T01:31:30.795Z,0
2017-10-05T01:32:40.729Z,0
2017-10-05T01:33:50.957Z,0
2017-10-05T01:35:01.196Z,0
2017-10-05T01:36:11.132Z,0
2017-10-05T01:37:21.390Z,0
2017-10-05T01:38:31.644Z,0
2017-10-05T01:39:42.191Z,0
2017-10-05T01:40:52.438Z,0
2017-10-05T01:42:02.689Z,0
2017-10-05T01:43:12.937Z,0
2017-10-05T01:44:23.183Z,0
2017-10-05T01:45:33.367Z,0
2017-10-05T01:46:43.009Z,0
2017-10-05T01:47:53.267Z,0
2017-10-05T01:49:03.519Z,0
2017-10-05T01:50:13.788Z,0
2017-10-05T01:51:24.288Z,0
2017-10-05T01:52:34.218Z,0
2017-10-05T01:53:44.456Z,0
2017-10-05T01:54:54.386Z,0
2017-10-05T01:56:04.632Z,0
2017-10-05T01:57:14.563Z,0
2017-10-05T01:58:24.808Z,0
2017-10-05T01:59:35.062Z,0
2017-10-05T02:00:44.995Z,0
2017-10-05T02:01:55.247Z,0
2017-10-05T02:03:05.538Z,0
2017-10-05T02:04:15.785Z,0
2017-10-05T02:05:26.027Z,0
2017-10-05T02:06:36.286Z,0
2017-10-05T02:07:46.215Z,0
2017-10-05T02:08:56.712Z,0
2017-10-05T02:10:06.955Z,0
2017-10-05T02:11:16.581Z,0
2017-10-05T02:12:26.832Z,0
2017-10-05T02:13:37.084Z,0
2017-10-05T02:14:47.265Z,0
2017-10-05T02:15:57.509Z,0
2017-10-05T02:17:07.789Z,0
2017-10-05T02:18:18.024Z,0
2017-10-05T02:19:27.990Z,0
2017-10-05T02:20:38.586Z,0
2017-10-05T02:21:48.849Z,0
2017-10-05T02:22:59.098Z,0
2017-10-05T02:24:09.350Z,0
2017-10-05T02:25:19.610Z,0
2017-10-05T02:26:30.202Z,0
2017-10-05T02:27:39.507Z,0
2017-10-05T02:28:49.449Z,0
2017-10-05T02:29:59.699Z,0
2017-10-05T02:31:09.944Z,0
2017-10-05T02:32:20.548Z,0
2017-10-05T02:33:30.791Z,0
2017-10-05T02:34:41.044Z,0
2017-10-05T02:35:51.305Z,0
2017-10-05T02:37:01.555Z,0
2017-10-05T02:38:11.756Z,0
2017-10-05T02:39:22.026Z,0
2017-10-05T02:40:32.294Z,0
2017-10-05T02:41:42.593Z,0
2017-10-05T02:42:52.542Z,0
2017-10-05T02:44:03.105Z,0
2017-10-05T02:45:13.356Z,0
2017-10-05T02:46:23.294Z,0
2017-10-05T02:47:33.581Z,0
2017-10-05T02:48:43.837Z,0
2017-10-05T02:49:54.409Z,0
2017-10-05T02:51:04.650Z,0
2017-10-05T02:52:14.268Z,0
2017-10-05T02:53:23.885Z,0
2017-10-05T02:54:33.516Z,0
2017-10-05T02:55:44.019Z,0
2017-10-05T02:56:53.960Z,0
2017-10-05T02:58:03.892Z,0
2017-10-05T02:59:13.818Z,0
2017-10-05T03:00:24.069Z,0
2017-10-05T03:01:34.569Z,0
2017-10-05T03:02:44.504Z,0
2017-10-05T03:03:54.124Z,0
2017-10-05T03:05:04.380Z,0
2017-10-05T03:06:14.635Z,0
2017-10-05T03:07:24.504Z,0
2017-10-05T03:08:34.428Z,0
2017-10-05T03:09:44.683Z,0
2017-10-05T03:10:54.929Z,0
2017-10-05T03:12:05.195Z,0
2017-10-05T03:13:15.429Z,0
2017-10-05T03:14:25.682Z,0
2017-10-05T03:15:35.930Z,0
2017-10-05T03:16:46.201Z,0
2017-10-05T03:17:56.134Z,0
2017-10-05T03:19:06.319Z,0
2017-10-05T03:20:16.570Z,0
2017-10-05T03:21:26.819Z,0
2017-10-05T03:22:36.763Z,0
2017-10-05T03:23:47.007Z,0
2017-10-05T03:24:56.877Z,0
2017-10-05T03:26:06.810Z,0
2017-10-05T03:27:17.060Z,0
2017-10-05T03:28:27.301Z,0
2017-10-05T03:29:37.551Z,0
2017-10-05T03:30:47.744Z,0
2017-10-05T03:31:58.001Z,0
2017-10-05T03:33:07.620Z,0
2017-10-05T03:34:17.546Z,0
2017-10-05T03:35:27.809Z,0
2017-10-05T03:36:38.303Z,0
2017-10-05T03:37:48.548Z,0
2017-10-05T03:38:58.492Z,0
2017-10-05T03:40:08.779Z,0
2017-10-05T03:41:19.024Z,0
2017-10-05T03:42:29.627Z,0
2017-10-05T03:43:39.870Z,0
2017-10-05T03:44:50.124Z,0
2017-10-05T03:46:00.401Z,0
2017-10-05T03:47:10.641Z,0
2017-10-05T03:48:21.195Z,0
2017-10-05T03:49:31.453Z,0
2017-10-05T03:50:41.700Z,0
2017-10-05T03:51:51.953Z,0
2017-10-05T03:53:02.217Z,0
2017-10-05T03:54:12.839Z,0
2017-10-05T03:55:22.925Z,0
2017-10-05T03:56:33.172Z,0
2017-10-05T03:57:43.417Z,0
2017-10-05T03:58:53.663Z,0
2017-10-05T04:00:03.949Z,0
2017-10-05T04:01:14.199Z,0
2017-10-05T04:02:24.457Z,0
2017-10-05T04:03:34.699Z,0
2017-10-05T04:04:44.327Z,0
2017-10-05T04:05:54.826Z,0
2017-10-05T04:07:04.758Z,0
2017-10-05T04:08:14.692Z,0
2017-10-05T04:09:24.931Z,0
2017-10-05T04:10:34.871Z,0
2017-10-05T04:11:45.474Z,0
2017-10-05T04:12:55.404Z,0
2017-10-05T04:14:05.339Z,0
2017-10-05T04:15:15.268Z,0
2017-10-05T04:16:25.517Z,0
2017-10-05T04:17:35.817Z,0
2017-10-05T04:18:46.063Z,0
2017-10-05T04:19:56.303Z,0
2017-10-05T04:21:06.236Z,0
2017-10-05T04:22:16.171Z,0
2017-10-05T04:23:26.723Z,0
2017-10-05T04:24:36.687Z,0
2017-10-05T04:25:46.622Z,0
2017-10-05T04:26:56.865Z,0
2017-10-05T04:28:07.120Z,0
2017-10-05T04:29:17.667Z,0
2017-10-05T04:30:27.921Z,0
2017-10-05T04:31:37.859Z,0
2017-10-05T04:32:47.795Z,0
2017-10-05T04:33:58.037Z,0
2017-10-05T04:35:08.637Z,0
2017-10-05T04:36:18.565Z,0
2017-10-05T04:37:28.498Z,0
2017-10-05T04:38:38.753Z,0
2017-10-05T04:39:48.689Z,0
2017-10-05T04:40:58.874Z,0
2017-10-05T04:42:09.118Z,0
2017-10-05T04:43:19.048Z,0
2017-10-05T04:44:28.999Z,0
2017-10-05T04:45:39.259Z,0
2017-10-05T04:46:49.790Z,0
2017-10-05T04:47:59.723Z,0
2017-10-05T04:49:09.984Z,0
2017-10-05T04:50:20.238Z,0
2017-10-05T04:51:30.476Z,0
2017-10-05T04:52:40.756Z,0
2017-10-05T04:53:50.675Z,0
2017-10-05T04:55:00.622Z,0
2017-10-05T04:56:10.869Z,0
2017-10-05T04:57:21.116Z,0
2017-10-05T04:58:31.308Z,0
2017-10-05T04:59:41.561Z,0
2017-10-05T05:00:51.817Z,0
2017-10-05T05:02:01.746Z,0
2017-10-05T05:03:11.364Z,0
2017-10-05T05:04:21.881Z,0
2017-10-05T05:05:31.819Z,0
2017-10-05T05:06:41.749Z,0
2017-10-05T05:07:51.989Z,0
2017-10-05T05:09:01.937Z,0
2017-10-05T05:10:12.499Z,0
2017-10-05T05:11:22.422Z,0
2017-10-05T05:12:32.667Z,0
2017-10-05T05:13:42.915Z,0
2017-10-05T05:14:53.153Z,0
2017-10-05T05:16:03.093Z,0
2017-10-05T05:17:13.338Z,0
2017-10-05T05:18:23.589Z,0
2017-10-05T05:19:34.064Z,0
2017-10-05T05:20:44.008Z,0
2017-10-05T05:21:54.552Z,0
2017-10-05T05:23:04.483Z,0
2017-10-05T05:24:14.733Z,0
2017-10-05T05:25:24.997Z,0
2017-10-05T05:26:35.247Z,0
2017-10-05T05:27:45.441Z,5
2017-10-05T05:28:55.685Z,5
2017-10-05T05:30:05.631Z,5
2017-10-05T05:31:15.870Z,5
2017-10-05T05:32:26.117Z,5
2017-10-05T05:33:36.296Z,5
2017-10-05T05:34:46.235Z,5
2017-10-05T05:35:56.498Z,5
2017-10-05T05:37:06.428Z,5
2017-10-05T05:38:16.354Z,5
2017-10-05T05:39:26.860Z,5
2017-10-05T05:40:37.120Z,5
2017-10-05T05:41:47.385Z,5
2017-10-05T05:42:57.687Z,5
2017-10-05T05:44:07.922Z,10
2017-10-05T05:45:18.538Z,10
2017-10-05T05:46:28.802Z,10
2017-10-05T05:47:39.066Z,10
2017-10-05T05:48:49.325Z,10
2017-10-05T05:49:59.589Z,10
2017-10-05T05:51:10.101Z,10
2017-10-05T05:52:20.022Z,15
2017-10-05T05:53:30.286Z,15
2017-10-05T05:54:40.537Z,15
2017-10-05T05:55:50.474Z,15
2017-10-05T05:57:01.043Z,15
2017-10-05T05:58:11.322Z,15
2017-10-05T05:59:21.577Z,15
2017-10-05T06:00:31.545Z,15
2017-10-05T06:01:41.803Z,15
2017-10-05T06:02:52.364Z,20
2017-10-05T06:04:02.610Z,25
2017-10-05T06:05:12.861Z,25
2017-10-05T06:06:23.130Z,35
2017-10-05T06:07:33.096Z,35
2017-10-05T06:08:42.984Z,40
2017-10-05T06:09:53.238Z,35
2017-10-05T06:11:03.492Z,35
2017-10-05T06:12:13.755Z,30
2017-10-05T06:13:23.998Z,35
2017-10-05T06:14:34.602Z,35
2017-10-05T06:15:44.861Z,35
2017-10-05T06:16:55.144Z,35
2017-10-05T06:18:05.404Z,30
2017-10-05T06:19:15.655Z,25
2017-10-05T06:20:26.212Z,25
2017-10-05T06:21:36.466Z,30
2017-10-05T06:22:46.394Z,30
2017-10-05T06:23:56.645Z,30
2017-10-05T06:25:06.955Z,30
2017-10-05T06:26:17.149Z,30
2017-10-05T06:27:27.416Z,25
2017-10-05T06:28:37.669Z,30
2017-10-05T06:29:47.916Z,35
2017-10-05T06:30:58.202Z,30
2017-10-05T06:32:08.818Z,35
2017-10-05T06:33:19.066Z,35
2017-10-05T06:34:28.993Z,35
2017-10-05T06:35:38.932Z,40
2017-10-05T06:36:48.881Z,40
2017-10-05T06:37:59.447Z,40
2017-10-05T06:39:09.704Z,40
2017-10-05T06:40:19.666Z,35
2017-10-05T06:41:29.602Z,45
2017-10-05T06:42:39.553Z,35
2017-10-05T06:43:50.049Z,40
2017-10-05T06:45:00.325Z,40
2017-10-05T06:46:10.610Z,45
2017-10-05T06:47:20.869Z,40
2017-10-05T06:48:31.129Z,40
2017-10-05T06:49:41.736Z,40
2017-10-05T06:50:51.681Z,40
2017-10-05T06:52:01.955Z,45
2017-10-05T06:53:12.255Z,60
2017-10-05T06:54:22.208Z,50
2017-10-05T06:55:32.732Z,45
2017-10-05T06:56:43.005Z,50
2017-10-05T06:57:53.462Z,60
2017-10-05T06:59:03.792Z,55
2017-10-05T07:00:14.089Z,60
2017-10-05T07:01:24.621Z,55
2017-10-05T07:02:34.237Z,50
2017-10-05T07:03:44.494Z,45
2017-10-05T07:04:54.436Z,55
2017-10-05T07:06:04.685Z,60
2017-10-05T07:07:15.258Z,70
2017-10-05T07:08:25.515Z,80
2017-10-05T07:09:35.819Z,85
2017-10-05T07:10:46.089Z,90
2017-10-05T07:11:56.388Z,75
2017-10-05T07:13:06.924Z,75
2017-10-05T07:14:16.857Z,85
2017-10-05T07:15:27.110Z,85
2017-10-05T07:16:37.388Z,85
2017-10-05T07:17:47.350Z,80
2017-10-05T07:18:57.859Z,90
2017-10-05T07:20:07.811Z,65
2017-10-05T07:21:18.087Z,75
2017-10-05T07:22:27.714Z,80
2017-10-05T07:23:37.968Z,75
2017-10-05T07:24:48.487Z,65
2017-10-05T07:25:58.765Z,75
2017-10-05T07:27:09.042Z,70
2017-10-05T07:28:18.987Z,65
2017-10-05T07:29:29.241Z,55
2017-10-05T07:30:39.490Z,50
2017-10-05T07:31:49.424Z,55
2017-10-05T07:32:59.062Z,55
2017-10-05T07:34:09.323Z,70
2017-10-05T07:35:19.581Z,80
2017-10-05T07:36:30.115Z,85
2017-10-05T07:37:40.396Z,75
2017-10-05T07:38:50.566Z,80
2017-10-05T07:40:00.775Z,70
2017-10-05T07:41:11.059Z,75
2017-10-05T07:42:21.372Z,60
2017-10-05T07:43:31.643Z,50
2017-10-05T07:44:41.912Z,50
2017-10-05T07:45:51.870Z,60
2017-10-05T07:47:02.162Z,75
2017-10-05T07:48:12.749Z,80
2017-10-05T07:49:22.724Z,60
2017-10-05T07:50:32.989Z,45
2017-10-05T07:51:43.352Z,40
2017-10-05T07:52:53.614Z,60
2017-10-05T07:54:03.980Z,70
2017-10-05T07:55:14.243Z,100
2017-10-05T07:56:24.534Z,115
2017-10-05T07:57:34.487Z,110
2017-10-05T07:58:44.422Z,100
2017-10-05T07:59:54.937Z,90
2017-10-05T08:01:04.915Z,75
2017-10-05T08:02:15.187Z,65
2017-10-05T08:03:25.443Z,50
2017-10-05T08:04:35.418Z,55
2017-10-05T08:05:45.987Z,60
2017-10-05T08:06:55.959Z,60
2017-10-05T08:08:06.212Z,80
2017-10-05T08:09:16.465Z,90
2017-10-05T08:10:26.398Z,95
2017-10-05T08:11:36.958Z,95
2017-10-05T08:12:46.941Z,110
2017-10-05T08:13:57.182Z,125
2017-10-05T08:15:07.125Z,130
2017-10-05T08:16:17.414Z,150
2017-10-05T08:17:27.626Z,155
2017-10-05T08:18:37.898Z,140
2017-10-05T08:19:48.181Z,135
2017-10-05T08:20:58.151Z,135
2017-10-05T08:22:08.424Z,130
2017-10-05T08:23:18.987Z,130
2017-10-05T08:24:29.380Z,120
2017-10-05T08:25:39.659Z,90
2017-10-05T08:26:49.923Z,110
2017-10-05T08:28:00.181Z,95
2017-10-05T08:29:10.368Z,85
2017-10-05T08:30:20.650Z,85
2017-10-05T08:31:30.586Z,85
2017-10-05T08:32:40.543Z,80
2017-10-05T08:33:50.806Z,70
2017-10-05T08:35:01.317Z,80
2017-10-05T08:36:11.567Z,85
2017-10-05T08:37:21.521Z,85
2017-10-05T08:38:32.005Z,85
2017-10-05T08:39:42.256Z,75
2017-10-05T08:40:52.478Z,70
2017-10-05T08:42:02.754Z,65
2017-10-05T08:43:12.728Z,70
2017-10-05T08:44:22.675Z,80
2017-10-05T08:45:32.961Z,100
2017-10-05T08:46:43.786Z,130
2017-10-05T08:47:53.768Z,145
2017-10-05T08:49:03.417Z,140
2017-10-05T08:50:13.399Z,125
2017-10-05T08:51:23.659Z,130
2017-10-05T08:52:33.992Z,120
2017-10-05T08:53:44.326Z,115
2017-10-05T08:54:54.328Z,115
2017-10-05T08:56:04.631Z,105
2017-10-05T08:57:14.595Z,100
2017-10-05T08:58:25.165Z,90
2017-10-05T08:59:35.127Z,105
2017-10-05T09:00:45.417Z,105
2017-10-05T09:01:55.709Z,110
2017-10-05T09:03:06.003Z,120
2017-10-05T09:04:16.202Z,115
2017-10-05T09:05:26.489Z,110
2017-10-05T09:06:36.974Z,105
2017-10-05T09:07:47.224Z,105
2017-10-05T09:08:57.468Z,105
2017-10-05T09:10:08.295Z,120
2017-10-05T09:11:18.171Z,105
2017-10-05T09:12:28.454Z,130
2017-10-05T09:13:38.747Z,115
2017-10-05T09:14:49.281Z,110
2017-10-05T09:15:59.852Z,105
2017-10-05T09:17:10.117Z,125
2017-10-05T09:18:20.386Z,110
2017-10-05T09:19:30.024Z,130
2017-10-05T09:20:39.960Z,135
2017-10-05T09:21:50.146Z,160
2017-10-05T09:23:00.419Z,155
2017-10-05T09:24:10.716Z,105
2017-10-05T09:25:21.031Z,90
2017-10-05T09:26:31.293Z,65
2017-10-05T09:27:41.237Z,60
2017-10-05T09:28:51.186Z,60
2017-10-05T09:30:01.462Z,75
2017-10-05T09:31:11.721Z,105
2017-10-05T09:32:21.980Z,150
2017-10-05T09:33:32.185Z,140
2017-10-05T09:34:42.439Z,160
2017-10-05T09:35:52.403Z,160
2017-10-05T09:37:02.670Z,205
2017-10-05T09:38:12.615Z,200
2017-10-05T09:39:23.118Z,225
2017-10-05T09:40:33.293Z,225
2017-10-05T09:41:43.567Z,190
2017-10-05T09:42:53.848Z,175
2017-10-05T09:44:04.096Z,165
2017-10-05T09:45:14.294Z,145
2017-10-05T09:46:24.539Z,120
2017-10-05T09:47:34.475Z,135
2017-10-05T09:48:44.727Z,110
2017-10-05T09:49:54.983Z,90
2017-10-05T09:51:05.552Z,75
2017-10-05T09:52:15.797Z,55
2017-10-05T09:53:25.732Z,60
2017-10-05T09:54:35.363Z,70
2017-10-05T09:55:45.630Z,85
2017-10-05T09:56:56.063Z,105
2017-10-05T09:58:06.320Z,120
2017-10-05T09:59:16.576Z,165
2017-10-05T10:00:26.919Z,195
2017-10-05T10:01:37.267Z,190
2017-10-05T10:02:47.808Z,165
2017-10-05T10:03:57.428Z,130
2017-10-05T10:05:07.691Z,135
2017-10-05T10:06:17.658Z,135
2017-10-05T10:07:27.607Z,140
2017-10-05T10:08:37.793Z,135
2017-10-05T10:09:48.053Z,160
2017-10-05T10:10:58.003Z,130
2017-10-05T10:12:07.935Z,95
2017-10-05T10:13:17.892Z,80
2017-10-05T10:14:28.078Z,65
2017-10-05T10:15:38.333Z,60
2017-10-05T10:16:48.289Z,55
2017-10-05T10:17:58.226Z,55
2017-10-05T10:19:08.494Z,55
2017-10-05T10:20:19.194Z,60
2017-10-05T10:21:29.140Z,60
2017-10-05T10:22:39.395Z,70
2017-10-05T10:23:49.328Z,90
2017-10-05T10:24:59.597Z,115
2017-10-05T10:26:10.111Z,130
2017-10-05T10:27:20.370Z,150
2017-10-05T10:28:30.624Z,165
2017-10-05T10:29:40.563Z,145
2017-10-05T10:30:50.848Z,145
2017-10-05T10:32:01.356Z,115
2017-10-05T10:33:11.664Z,110
2017-10-05T10:34:21.605Z,130
2017-10-05T10:35:31.882Z,105
2017-10-05T10:36:41.861Z,95
2017-10-05T10:37:52.064Z,95
2017-10-05T10:39:02.312Z,80
2017-10-05T10:40:12.279Z,60
2017-10-05T10:41:22.537Z,70
2017-10-05T10:42:32.792Z,90
2017-10-05T10:43:43.307Z,95
2017-10-05T10:44:53.556Z,125
2017-10-05T10:46:03.827Z,115
2017-10-05T10:47:14.133Z,165
2017-10-05T10:48:24.386Z,135
2017-10-05T10:49:34.898Z,140
2017-10-05T10:50:45.159Z,165
2017-10-05T10:51:55.414Z,120
2017-10-05T10:53:05.378Z,80
2017-10-05T10:54:15.641Z,60
2017-10-05T10:55:26.204Z,80
2017-10-05T10:56:36.148Z,70
2017-10-05T10:57:46.091Z,80
2017-10-05T10:58:56.346Z,95
2017-10-05T11:00:06.302Z,130
2017-10-05T11:01:16.834Z,140
2017-10-05T11:02:27.093Z,170
2017-10-05T11:03:37.355Z,160
2017-10-05T11:04:47.611Z,180
2017-10-05T11:05:57.579Z,170
2017-10-05T11:07:08.081Z,150
2017-10-05T11:08:18.377Z,115
2017-10-05T11:09:28.638Z,125
2017-10-05T11:10:38.930Z,125
2017-10-05T11:11:49.195Z,130
2017-10-05T11:12:59.710Z,135
2017-10-05T11:14:10.010Z,120
2017-10-05T11:15:20.270Z,125
2017-10-05T11:16:30.568Z,140
2017-10-05T11:17:40.512Z,160
2017-10-05T11:18:51.084Z,210
2017-10-05T11:20:01.349Z,175
2017-10-05T11:21:11.291Z,170
2017-10-05T11:22:21.560Z,215
2017-10-05T11:23:31.196Z,175
2017-10-05T11:24:41.749Z,220
2017-10-05T11:25:52.009Z,240
2017-10-05T11:27:02.277Z,165
2017-10-05T11:28:12.532Z,160
2017-10-05T11:29:22.792Z,195
2017-10-05T11:30:33.317Z,160
2017-10-05T11:31:43.584Z,170
2017-10-05T11:32:53.849Z,140
2017-10-05T11:34:04.111Z,135
2017-10-05T11:35:14.380Z,110
2017-10-05T11:36:24.625Z,135
2017-10-05T11:37:34.996Z,175
2017-10-05T11:38:45.239Z,190
2017-10-05T11:39:55.199Z,130
2017-10-05T11:41:05.459Z,150
2017-10-05T11:42:15.973Z,175
2017-10-05T11:43:26.280Z,160
2017-10-05T11:44:36.537Z,135
2017-10-05T11:45:46.787Z,145
2017-10-05T11:46:57.036Z,175
2017-10-05T11:48:07.228Z,170
2017-10-05T11:49:17.497Z,190
2017-10-05T11:50:27.753Z,225
2017-10-05T11:51:38.024Z,210
2017-10-05T11:52:48.282Z,180
2017-10-05T11:53:58.851Z,150
2017-10-05T11:55:09.100Z,140
2017-10-05T11:56:19.045Z,145
2017-10-05T11:57:29.318Z,140
2017-10-05T11:58:38.946Z,160
2017-10-05T11:59:48.831Z,195
2017-10-05T12:00:59.114Z,175
2017-10-05T12:02:09.362Z,255
2017-10-05T12:03:19.622Z,225
2017-10-05T12:04:29.578Z,205
2017-10-05T12:05:40.023Z,315
2017-10-05T12:06:50.307Z,490
2017-10-05T12:08:00.248Z,460
2017-10-05T12:09:10.536Z,575
2017-10-05T12:10:20.487Z,940
2017-10-05T12:11:31.044Z,1055
2017-10-05T12:12:41.305Z,845
2017-10-05T12:13:51.573Z,490
2017-10-05T12:15:01.829Z,465
2017-10-05T12:16:12.089Z,325
2017-10-05T12:17:22.284Z,245
2017-10-05T12:18:32.528Z,240
2017-10-05T12:19:42.219Z,355
2017-10-05T12:20:52.479Z,450
2017-10-05T12:22:02.758Z,560
2017-10-05T12:23:13.264Z,865
2017-10-05T12:24:23.556Z,1810
2017-10-05T12:25:33.805Z,935
2017-10-05T12:26:44.074Z,805
2017-10-05T12:27:54.323Z,685
2017-10-05T12:29:04.838Z,470
2017-10-05T12:30:14.776Z,370
2017-10-05T12:31:24.719Z,270
2017-10-05T12:32:34.982Z,300
2017-10-05T12:33:45.248Z,230
2017-10-05T12:34:55.448Z,295
2017-10-05T12:36:05.709Z,360
2017-10-05T12:37:15.999Z,425
2017-10-05T12:38:26.272Z,510
2017-10-05T12:39:36.566Z,540
2017-10-05T12:40:47.115Z,390
2017-10-05T12:41:57.359Z,265
2017-10-05T12:43:07.313Z,260
2017-10-05T12:44:16.959Z,345
2017-10-05T12:45:26.900Z,440
2017-10-05T12:46:37.395Z,420
2017-10-05T12:47:47.020Z,465
2017-10-05T12:48:56.964Z,470
2017-10-05T12:50:06.911Z,300
2017-10-05T12:51:16.850Z,305
2017-10-05T12:52:26.752Z,325
2017-10-05T12:53:37.023Z,305
2017-10-05T12:54:47.273Z,375
2017-10-05T12:55:57.218Z,285
2017-10-05T12:57:07.482Z,230
2017-10-05T12:58:17.678Z,310
2017-10-05T12:59:27.636Z,255
2017-10-05T13:00:37.887Z,180
2017-10-05T13:01:47.845Z,195
2017-10-05T13:02:58.114Z,160
2017-10-05T13:04:07.992Z,195
2017-10-05T13:05:18.044Z,220
2017-10-05T13:06:28.310Z,215
2017-10-05T13:07:38.255Z,145
2017-10-05T13:08:48.196Z,130
2017-10-05T13:09:58.712Z,150
2017-10-05T13:11:08.969Z,175
2017-10-05T13:12:18.627Z,230
2017-10-05T13:13:28.881Z,330
2017-10-05T13:14:39.135Z,275
2017-10-05T13:15:49.326Z,230
2017-10-05T13:16:59.587Z,190
2017-10-05T13:18:09.843Z,160
2017-10-05T13:19:20.105Z,130
2017-10-05T13:20:30.364Z,155
2017-10-05T13:21:40.883Z,125
2017-10-05T13:22:51.163Z,155
2017-10-05T13:24:01.425Z,210
2017-10-05T13:25:11.683Z,220
2017-10-05T13:26:21.932Z,265
2017-10-05T13:27:32.433Z,180
2017-10-05T13:28:42.692Z,145
2017-10-05T13:29:52.624Z,140
2017-10-05T13:31:02.575Z,115
2017-10-05T13:32:12.512Z,130
2017-10-05T13:33:23.031Z,150
2017-10-05T13:34:32.965Z,145
2017-10-05T13:35:43.252Z,180
2017-10-05T13:36:53.186Z,160
2017-10-05T13:38:03.117Z,150
2017-10-05T13:39:13.314Z,130
2017-10-05T13:40:23.584Z,135
2017-10-05T13:41:33.863Z,160
2017-10-05T13:42:44.116Z,145
2017-10-05T13:43:54.376Z,125
2017-10-05T13:45:04.572Z,110
2017-10-05T13:46:14.509Z,75
2017-10-05T13:47:23.815Z,70
2017-10-05T13:48:34.099Z,85
2017-10-05T13:49:44.370Z,145
2017-10-05T13:50:54.870Z,155
2017-10-05T13:52:05.386Z,130
2017-10-05T13:53:15.641Z,115
2017-10-05T13:54:25.903Z,135
2017-10-05T13:55:36.161Z,85
2017-10-05T13:56:46.358Z,70
2017-10-05T13:57:56.622Z,75
2017-10-05T13:59:06.869Z,85
2017-10-05T14:00:17.146Z,60
2017-10-05T14:01:27.417Z,50
2017-10-05T14:02:37.755Z,50
2017-10-05T14:03:48.004Z,45
2017-10-05T14:04:58.305Z,55
2017-10-05T14:06:08.248Z,65
2017-10-05T14:07:18.213Z,75
2017-10-05T14:08:28.418Z,85
2017-10-05T14:09:38.707Z,125
2017-10-05T14:10:48.968Z,120
2017-10-05T14:11:58.915Z,135
2017-10-05T14:13:09.186Z,135
2017-10-05T14:14:19.056Z,105
2017-10-05T14:15:28.997Z,140
2017-10-05T14:16:38.934Z,100
2017-10-05T14:17:48.876Z,75
2017-10-05T14:18:58.816Z,70
2017-10-05T14:20:08.747Z,70
2017-10-05T14:21:18.989Z,60
2017-10-05T14:22:29.241Z,60
2017-10-05T14:23:39.193Z,70
2017-10-05T14:24:49.442Z,60
2017-10-05T14:25:59.640Z,80
2017-10-05T14:27:09.893Z,60
2017-10-05T14:28:20.146Z,65
2017-10-05T14:29:30.082Z,80
2017-10-05T14:30:40.027Z,85
2017-10-05T14:31:50.218Z,120
2017-10-05T14:33:00.468Z,90
2017-10-05T14:34:10.402Z,80
2017-10-05T14:35:20.361Z,75
2017-10-05T14:36:30.646Z,75
2017-10-05T14:37:40.524Z,75
2017-10-05T14:38:50.782Z,85
2017-10-05T14:40:01.042Z,70
2017-10-05T14:41:11.296Z,70
2017-10-05T14:42:21.547Z,70
2017-10-05T14:43:32.053Z,65
2017-10-05T14:44:42.319Z,75
2017-10-05T14:45:52.591Z,55
2017-10-05T14:47:02.853Z,65
2017-10-05T14:48:13.109Z,65
2017-10-05T14:49:23.296Z,65
2017-10-05T14:50:33.543Z,65
2017-10-05T14:51:43.813Z,55
2017-10-05T14:52:53.748Z,60
2017-10-05T14:54:04.007Z,65
2017-10-05T14:55:14.526Z,65
2017-10-05T14:56:24.492Z,60
2017-10-05T14:57:34.425Z,55
2017-10-05T14:58:44.354Z,55
2017-10-05T14:59:54.300Z,65
2017-10-05T15:01:04.553Z,70
2017-10-05T15:02:14.814Z,90
2017-10-05T15:03:25.089Z,65
2017-10-05T15:04:35.357Z,65
2017-10-05T15:05:45.306Z,60
2017-10-05T15:06:55.832Z,60
2017-10-05T15:08:06.082Z,50
2017-10-05T15:09:16.347Z,45
2017-10-05T15:10:26.288Z,50
2017-10-05T15:11:36.568Z,55
2017-10-05T15:12:47.070Z,40
2017-10-05T15:13:57.382Z,40
2017-10-05T15:15:07.321Z,50
2017-10-05T15:16:17.598Z,45
2017-10-05T15:17:27.532Z,65
2017-10-05T15:18:37.722Z,85
2017-10-05T15:19:47.999Z,80
2017-10-05T15:20:58.270Z,70
2017-10-05T15:22:08.518Z,75
2017-10-05T15:23:18.462Z,75
2017-10-05T15:24:28.959Z,75
2017-10-05T15:25:39.236Z,80
2017-10-05T15:26:49.185Z,90
2017-10-05T15:27:59.439Z,70
2017-10-05T15:29:09.085Z,75
2017-10-05T15:30:19.272Z,85
2017-10-05T15:31:29.530Z,70
2017-10-05T15:32:39.800Z,55
2017-10-05T15:33:49.764Z,55
2017-10-05T15:35:00.015Z,45
2017-10-05T15:36:10.530Z,60
2017-10-05T15:37:20.791Z,65
2017-10-05T15:38:31.043Z,65
2017-10-05T15:39:41.288Z,75
2017-10-05T15:40:51.553Z,65
2017-10-05T15:42:02.081Z,80
2017-10-05T15:43:12.337Z,65
2017-10-05T15:44:22.577Z,60
2017-10-05T15:45:32.510Z,60
2017-10-05T15:46:42.129Z,45
2017-10-05T15:47:52.309Z,35
2017-10-05T15:49:02.249Z,25
2017-10-05T15:50:12.195Z,35
2017-10-05T15:51:22.462Z,30
2017-10-05T15:52:32.716Z,30
2017-10-05T15:53:42.897Z,40
2017-10-05T15:54:53.154Z,30
2017-10-05T15:56:03.424Z,30
2017-10-05T15:57:13.364Z,25
2017-10-05T15:58:23.315Z,25
2017-10-05T15:59:33.817Z,20
2017-10-05T16:00:44.071Z,15
2017-10-05T16:01:54.002Z,15
2017-10-05T16:03:04.261Z,15
2017-10-05T16:04:14.189Z,15
2017-10-05T16:05:24.383Z,15
2017-10-05T16:06:34.630Z,15
2017-10-05T16:07:44.903Z,15
2017-10-05T16:08:54.524Z,10
2017-10-05T16:10:04.469Z,10
2017-10-05T16:11:14.688Z,10
2017-10-05T16:12:24.636Z,10
2017-10-05T16:13:34.892Z,15
2017-10-05T16:14:45.152Z,10
2017-10-05T16:15:55.414Z,10
2017-10-05T16:17:05.920Z,10
2017-10-05T16:18:16.174Z,10
2017-10-05T16:19:26.430Z,10
2017-10-05T16:20:36.689Z,10
2017-10-05T16:21:46.318Z,10
2017-10-05T16:22:56.830Z,10
2017-10-05T16:24:07.089Z,5
2017-10-05T16:25:17.359Z,5
2017-10-05T16:26:27.614Z,5
2017-10-05T16:27:37.859Z,5
2017-10-05T16:28:48.373Z,5
2017-10-05T16:29:58.625Z,5
2017-10-05T16:31:08.900Z,5
2017-10-05T16:32:19.163Z,5
2017-10-05T16:33:29.097Z,5
2017-10-05T16:34:38.962Z,5
2017-10-05T16:35:49.210Z,5
2017-10-05T16:36:59.148Z,5
2017-10-05T16:38:09.390Z,5
2017-10-05T16:39:19.660Z,5
2017-10-05T16:40:30.173Z,0
2017-10-05T16:41:40.424Z,0
2017-10-05T16:42:50.379Z,0